createdAt,value
2018-12-10T00:01:34.857Z,7.50
2018-12-10T00:04:04.161Z,7.50
2018-12-10T00:06:39.738Z,7.50
2018-12-10T00:09:09.824Z,7.50
2018-12-10T00:11:42.501Z,7.50
2018-12-10T00:14:11.526Z,7.60
2018-12-10T00:16:46.013Z,7.50
2018-12-10T00:19:14.996Z,7.40
2018-12-10T00:21:51.671Z,7.40
2018-12-10T00:24:20.879Z,7.30
2018-12-10T00:26:50.624Z,7.30
2018-12-10T00:29:19.919Z,7.30
2018-12-10T00:31:53.506Z,7.30
2018-12-10T00:34:22.479Z,7.30
2018-12-10T00:36:57.543Z,7.30
2018-12-10T00:39:26.640Z,7.30
2018-12-10T00:42:03.440Z,7.30
2018-12-10T00:44:32.560Z,7.30
2018-12-10T00:47:05.498Z,7.30
2018-12-10T00:49:35.027Z,7.20
2018-12-10T00:52:06.237Z,7.20
2018-12-10T00:54:35.258Z,7.20
2018-12-10T00:57:13.219Z,7.20
2018-12-10T00:59:42.873Z,7.20
2018-12-10T01:02:12.399Z,7.20
2018-12-10T01:04:41.850Z,7.20
2018-12-10T01:07:14.244Z,7.30
2018-12-10T01:09:43.254Z,7.30
2018-12-10T01:12:19.660Z,7.30
2018-12-10T01:14:49.379Z,7.30
2018-12-10T01:17:19.179Z,7.30
2018-12-10T01:19:48.617Z,7.20
2018-12-10T01:22:21.226Z,7.20
2018-12-10T01:24:50.619Z,7.20
2018-12-10T01:27:24.094Z,7.20
2018-12-10T01:29:53.559Z,7.20
2018-12-10T01:32:26.515Z,7.20
2018-12-10T01:34:56.037Z,7.20
2018-12-10T01:37:29.515Z,7.20
2018-12-10T01:39:59.221Z,7.20
2018-12-10T01:42:31.259Z,7.20
2018-12-10T01:45:02.059Z,7.20
2018-12-10T01:47:35.360Z,7.20
2018-12-10T01:50:05.279Z,7.10
2018-12-10T01:52:36.198Z,7.20
2018-12-10T01:55:05.894Z,7.20
2018-12-10T01:57:38.701Z,7.20
2018-12-10T02:00:08.503Z,7.10
2018-12-10T02:02:44.716Z,7.10
2018-12-10T02:05:14.329Z,7.20
2018-12-10T02:07:44.582Z,7.10
2018-12-10T02:10:13.830Z,7.10
2018-12-10T02:12:49.651Z,7.10
2018-12-10T02:15:18.842Z,7.10
2018-12-10T02:17:49.807Z,7.10
2018-12-10T02:20:19.277Z,7.10
2018-12-10T02:22:57.855Z,7.20
2018-12-10T02:25:26.955Z,7.10
2018-12-10T02:27:56.030Z,7.20
2018-12-10T02:30:25.850Z,7.20
2018-12-10T02:33:02.869Z,7.20
2018-12-10T02:35:31.782Z,7.20
2018-12-10T02:38:03.114Z,7.30
2018-12-10T02:40:32.348Z,7.30
2018-12-10T02:43:09.534Z,7.20
2018-12-10T02:45:38.737Z,7.20
2018-12-10T02:48:09.704Z,7.20
2018-12-10T02:50:39.532Z,7.20
2018-12-10T02:53:11.669Z,7.20
2018-12-10T02:55:41.208Z,7.20
2018-12-10T02:58:14.474Z,7.20
2018-12-10T03:00:43.472Z,7.10
2018-12-10T03:03:16.465Z,7.20
2018-12-10T03:05:45.730Z,7.10
2018-12-10T03:08:18.489Z,7.10
2018-12-10T03:10:47.512Z,7.00
2018-12-10T03:13:20.092Z,6.90
2018-12-10T03:15:49.327Z,6.90
2018-12-10T03:18:22.999Z,6.90
2018-12-10T03:20:52.953Z,6.80
2018-12-10T03:23:26.501Z,6.80
2018-12-10T03:25:55.579Z,6.80
2018-12-10T03:28:32.051Z,6.80
2018-12-10T03:31:01.462Z,6.90
2018-12-10T03:33:30.699Z,6.80
2018-12-10T03:36:00.208Z,6.80
2018-12-10T03:38:33.478Z,6.90
2018-12-10T03:41:02.641Z,6.80
2018-12-10T03:43:36.365Z,6.80
2018-12-10T03:46:05.592Z,6.80
2018-12-10T03:48:38.751Z,6.90
2018-12-10T03:51:07.740Z,6.90
2018-12-10T03:53:40.956Z,6.90
2018-12-10T03:56:10.076Z,7.00
2018-12-10T03:58:43.408Z,7.00
2018-12-10T04:01:12.442Z,6.90
2018-12-10T04:03:48.212Z,6.90
2018-12-10T04:06:17.873Z,6.80
2018-12-10T04:08:51.153Z,6.80
2018-12-10T04:11:20.149Z,6.80
2018-12-10T04:13:56.407Z,6.90
2018-12-10T04:16:25.405Z,6.90
2018-12-10T04:18:57.434Z,6.80
2018-12-10T04:21:26.319Z,6.80
2018-12-10T04:23:59.779Z,6.80
2018-12-10T04:26:29.007Z,6.80
2018-12-10T04:29:01.404Z,6.90
2018-12-10T04:31:30.758Z,6.90
2018-12-10T04:34:03.789Z,6.90
2018-12-10T04:36:32.795Z,6.90
2018-12-10T04:39:06.444Z,7.00
2018-12-10T04:41:35.420Z,7.00
2018-12-10T04:44:09.487Z,7.00
2018-12-10T04:46:38.725Z,7.00
2018-12-10T04:49:12.886Z,7.00
2018-12-10T04:51:41.819Z,6.90
2018-12-10T04:54:15.244Z,6.80
2018-12-10T04:56:45.023Z,6.80
2018-12-10T04:59:21.456Z,6.70
2018-12-10T05:01:50.412Z,6.70
2018-12-10T05:04:22.737Z,6.70
2018-12-10T05:06:51.772Z,6.70
2018-12-10T05:09:25.182Z,6.70
2018-12-10T05:11:54.287Z,6.70
2018-12-10T05:14:25.392Z,6.70
2018-12-10T05:16:54.638Z,6.80
2018-12-10T05:19:28.085Z,6.70
2018-12-10T05:21:57.023Z,6.80
2018-12-10T05:24:30.222Z,6.70
2018-12-10T05:27:01.175Z,6.80
2018-12-10T05:29:37.099Z,6.70
2018-12-10T05:32:06.287Z,6.60
2018-12-10T05:34:35.651Z,6.70
2018-12-10T05:37:04.841Z,6.60
2018-12-10T05:39:38.665Z,6.60
2018-12-10T05:42:07.671Z,6.60
2018-12-10T05:44:43.937Z,6.50
2018-12-10T05:47:13.102Z,6.40
2018-12-10T05:49:44.286Z,6.40
2018-12-10T05:52:13.255Z,6.50
2018-12-10T05:54:49.830Z,6.40
2018-12-10T05:57:18.867Z,6.40
2018-12-10T05:59:48.873Z,6.50
2018-12-10T06:02:18.457Z,6.50
2018-12-10T06:04:52.241Z,6.50
2018-12-10T06:07:21.176Z,6.40
2018-12-10T06:09:55.095Z,6.40
2018-12-10T06:12:24.259Z,6.40
2018-12-10T06:14:58.166Z,6.30
2018-12-10T06:17:27.343Z,6.30
2018-12-10T06:20:04.465Z,6.30
2018-12-10T06:22:33.427Z,6.30
2018-12-10T06:25:03.356Z,6.40
2018-12-10T06:27:32.316Z,6.30
2018-12-10T06:30:08.511Z,6.30
2018-12-10T06:32:37.476Z,6.30
2018-12-10T06:35:14.158Z,6.30
2018-12-10T06:37:43.665Z,6.30
2018-12-10T06:40:42.032Z,6.20
2018-12-10T06:43:15.625Z,6.20
2018-12-10T06:45:44.660Z,6.20
2018-12-10T06:48:17.327Z,6.30
2018-12-10T06:50:46.695Z,6.30
2018-12-10T06:53:19.474Z,6.30
2018-12-10T06:55:48.510Z,6.30
2018-12-10T06:58:21.247Z,6.40
2018-12-10T07:00:50.216Z,6.40
2018-12-10T07:03:26.463Z,6.50
2018-12-10T07:05:55.705Z,6.50
2018-12-10T07:08:27.889Z,6.50
2018-12-10T07:10:56.906Z,6.50
2018-12-10T07:13:28.484Z,6.50
2018-12-10T07:15:58.328Z,6.50
2018-12-10T07:18:34.391Z,6.60
2018-12-10T07:21:03.616Z,6.60
2018-12-10T07:23:33.869Z,6.60
2018-12-10T07:26:02.839Z,6.60
2018-12-10T07:28:37.905Z,6.60
2018-12-10T07:31:07.107Z,6.60
2018-12-10T07:33:39.128Z,6.60
2018-12-10T07:36:08.414Z,6.60
2018-12-10T07:38:45.342Z,6.60
2018-12-10T07:41:14.310Z,6.40
2018-12-10T07:43:44.096Z,6.40
2018-12-10T07:46:13.160Z,6.50
2018-12-10T07:48:50.537Z,6.50
2018-12-10T07:51:19.796Z,6.60
2018-12-10T07:53:52.304Z,6.50
2018-12-10T07:56:28.846Z,6.50
2018-12-10T07:58:53.793Z,6.50
2018-12-10T08:01:22.735Z,6.60
2018-12-10T08:03:59.313Z,6.60
2018-12-10T08:06:28.540Z,6.50
2018-12-10T08:08:59.011Z,6.60
2018-12-10T08:11:28.029Z,6.60
2018-12-10T08:14:03.627Z,6.70
2018-12-10T08:16:32.841Z,6.60
2018-12-10T08:19:05.598Z,6.60
2018-12-10T08:21:34.618Z,6.60
2018-12-10T08:24:08.419Z,6.70
2018-12-10T08:26:37.963Z,6.80
2018-12-10T08:29:13.810Z,6.80
2018-12-10T08:31:43.021Z,6.80
2018-12-10T08:34:15.077Z,6.80
2018-12-10T08:36:44.011Z,6.80
2018-12-10T08:39:16.354Z,6.90
2018-12-10T08:41:45.424Z,6.80
2018-12-10T08:44:20.333Z,6.90
2018-12-10T08:46:49.220Z,6.90
2018-12-10T08:49:21.411Z,6.90
2018-12-10T08:51:50.678Z,7.00
2018-12-10T08:54:27.041Z,7.00
2018-12-10T08:56:56.031Z,7.00
2018-12-10T08:59:26.312Z,7.00
2018-12-10T09:01:55.428Z,6.90
2018-12-10T09:04:28.597Z,6.90
2018-12-10T09:06:58.663Z,6.90
2018-12-10T09:09:34.984Z,6.90
2018-12-10T09:12:04.024Z,7.00
2018-12-10T09:14:34.443Z,7.00
2018-12-10T09:17:03.527Z,7.00
2018-12-10T09:19:39.705Z,7.00
2018-12-10T09:22:08.956Z,7.10
2018-12-10T09:24:39.377Z,8.10
2018-12-10T09:27:08.393Z,9.40
2018-12-10T09:29:41.885Z,10.60
2018-12-10T09:32:12.425Z,10.50
2018-12-10T09:34:49.207Z,9.90
2018-12-10T09:37:18.212Z,9.60
2018-12-10T09:39:47.420Z,9.10
2018-12-10T09:42:16.378Z,8.70
2018-12-10T09:44:50.198Z,9.20
2018-12-10T09:47:20.933Z,10.60
2018-12-10T09:49:54.007Z,12.70
2018-12-10T09:52:23.170Z,14.70
2018-12-10T09:54:57.230Z,16.00
2018-12-10T09:57:26.298Z,17.50
2018-12-10T10:00:02.653Z,18.80
2018-12-10T10:02:31.597Z,19.60
2018-12-10T10:05:03.957Z,17.90
2018-12-10T10:07:33.263Z,16.70
2018-12-10T10:10:08.194Z,14.80
2018-12-10T10:12:37.429Z,13.50
2018-12-10T10:15:13.706Z,12.90
2018-12-10T10:17:42.757Z,12.50
2018-12-10T10:20:13.760Z,11.80
2018-12-10T10:22:43.290Z,12.00
2018-12-10T10:25:16.475Z,12.00
2018-12-10T10:27:45.854Z,11.30
2018-12-10T10:30:18.527Z,10.90
2018-12-10T10:32:47.754Z,10.80
2018-12-10T10:35:23.106Z,10.20
2018-12-10T10:37:52.360Z,10.10
2018-12-10T10:40:25.016Z,9.70
2018-12-10T10:42:54.069Z,9.60
2018-12-10T10:45:34.471Z,9.30
2018-12-10T10:47:57.682Z,9.10
2018-12-10T10:50:29.787Z,8.80
2018-12-10T10:52:58.813Z,8.70
2018-12-10T10:55:31.236Z,8.70
2018-12-10T10:58:00.248Z,8.70
2018-12-10T11:00:38.071Z,8.60
2018-12-10T11:03:12.592Z,8.50
2018-12-10T11:05:41.631Z,8.40
2018-12-10T11:08:10.635Z,8.30
2018-12-10T11:10:39.601Z,8.30
2018-12-10T11:13:08.600Z,8.20
2018-12-10T11:15:40.558Z,8.30
2018-12-10T11:18:09.685Z,8.40
2018-12-10T11:20:45.343Z,8.40
2018-12-10T11:23:14.787Z,8.40
2018-12-10T11:25:47.982Z,8.30
2018-12-10T11:28:17.668Z,8.30
2018-12-10T11:30:50.028Z,8.20
2018-12-10T11:33:19.068Z,8.20
2018-12-10T11:35:54.559Z,8.30
2018-12-10T11:38:23.923Z,8.30
2018-12-10T11:40:56.241Z,8.30
2018-12-10T11:43:25.282Z,8.30
2018-12-10T11:46:01.705Z,8.40
2018-12-10T11:48:30.777Z,8.40
2018-12-10T11:51:02.859Z,8.50
2018-12-10T11:53:32.205Z,8.50
2018-12-10T11:56:08.267Z,8.50
2018-12-10T11:58:37.331Z,8.40
2018-12-10T12:01:09.546Z,8.20
2018-12-10T12:03:38.561Z,8.20
2018-12-10T12:06:12.546Z,8.20
2018-12-10T12:08:41.562Z,8.10
2018-12-10T12:11:14.031Z,8.10
2018-12-10T12:13:44.518Z,8.10
2018-12-10T12:16:17.487Z,8.10
2018-12-10T12:18:46.966Z,8.20
2018-12-10T12:21:20.321Z,8.30
2018-12-10T12:23:49.328Z,8.10
2018-12-10T12:26:21.730Z,8.10
2018-12-10T12:28:50.752Z,8.10
2018-12-10T12:31:23.683Z,8.10
2018-12-10T12:33:52.993Z,8.10
2018-12-10T12:36:25.887Z,8.00
2018-12-10T12:38:54.856Z,8.00
2018-12-10T12:41:32.002Z,8.00
2018-12-10T12:44:00.991Z,8.10
2018-12-10T12:46:31.175Z,8.00
2018-12-10T12:49:00.495Z,8.00
2018-12-10T12:51:33.556Z,7.90
2018-12-10T12:54:02.563Z,8.00
2018-12-10T12:56:38.897Z,8.10
2018-12-10T12:59:07.992Z,8.50
2018-12-10T13:01:40.513Z,9.00
2018-12-10T13:04:09.952Z,9.00
2018-12-10T13:06:42.400Z,9.00
2018-12-10T13:09:11.428Z,9.00
2018-12-10T13:11:47.866Z,8.90
2018-12-10T13:14:17.160Z,8.80
2018-12-10T13:16:49.981Z,8.80
2018-12-10T13:19:19.763Z,8.60
2018-12-10T13:21:50.876Z,8.50
2018-12-10T13:24:19.941Z,8.40
2018-12-10T13:26:54.295Z,8.30
2018-12-10T13:29:31.017Z,8.30
2018-12-10T13:31:59.463Z,8.30
2018-12-10T13:34:28.761Z,8.30
2018-12-10T13:37:01.504Z,8.20
2018-12-10T13:39:30.822Z,8.10
2018-12-10T13:42:03.783Z,8.00
2018-12-10T13:44:32.744Z,8.10
2018-12-10T13:47:09.186Z,8.10
2018-12-10T13:49:39.103Z,8.10
2018-12-10T13:52:11.280Z,8.20
2018-12-10T13:54:40.344Z,8.20
2018-12-10T13:57:17.893Z,8.20
2018-12-10T13:59:46.901Z,8.10
2018-12-10T14:02:18.211Z,8.00
2018-12-10T14:04:57.143Z,7.70
2018-12-10T14:07:26.228Z,7.50
2018-12-10T14:09:55.318Z,7.30
2018-12-10T14:12:24.352Z,7.20
2018-12-10T14:14:53.404Z,7.10
2018-12-10T14:17:24.279Z,7.00
2018-12-10T14:19:53.314Z,6.80
2018-12-10T14:22:30.413Z,6.90
2018-12-10T14:24:59.720Z,6.90
2018-12-10T14:27:32.599Z,6.90
2018-12-10T14:30:01.953Z,7.00
2018-12-10T14:32:33.091Z,6.90
2018-12-10T14:35:02.343Z,6.90
2018-12-10T14:37:33.329Z,6.90
2018-12-10T14:40:02.757Z,6.90
2018-12-10T14:42:53.846Z,6.90
2018-12-10T14:45:23.376Z,6.90
2018-12-10T14:50:27.412Z,7.00
2018-12-10T14:52:56.676Z,7.00
2018-12-10T14:55:25.776Z,7.10
2018-12-10T14:57:55.234Z,7.10
2018-12-10T15:00:26.165Z,7.10
2018-12-10T15:02:55.190Z,7.20
2018-12-10T15:05:24.265Z,7.10
2018-12-10T15:07:53.817Z,7.10
2018-12-10T15:10:23.345Z,7.00
2018-12-10T15:13:00.668Z,7.10
2018-12-10T15:15:30.524Z,7.10
2018-12-10T15:18:02.057Z,7.10
2018-12-10T15:20:31.982Z,7.20
2018-12-10T15:23:04.340Z,7.10
2018-12-10T15:25:33.686Z,7.20
2018-12-10T15:28:02.767Z,7.20
2018-12-10T15:30:32.083Z,7.20
2018-12-10T15:33:06.644Z,7.30
2018-12-10T15:35:35.673Z,7.20
2018-12-10T15:38:08.173Z,7.30
2018-12-10T15:40:37.205Z,7.20
2018-12-10T15:43:13.438Z,7.20
2018-12-10T15:45:42.482Z,7.20
2018-12-10T15:48:15.532Z,7.20
2018-12-10T15:50:45.018Z,7.20
2018-12-10T15:53:15.516Z,7.20
2018-12-10T15:55:44.564Z,7.30
2018-12-10T15:58:18.448Z,7.30
2018-12-10T16:00:47.561Z,7.30
2018-12-10T16:03:20.345Z,7.30
2018-12-10T16:06:05.434Z,7.40
2018-12-10T16:08:34.411Z,7.30
2018-12-10T16:11:11.985Z,7.20
2018-12-10T16:13:42.117Z,7.20
2018-12-10T16:16:11.188Z,7.30
2018-12-10T16:18:40.376Z,7.30
2018-12-10T16:21:09.833Z,7.20
2018-12-10T16:23:39.189Z,7.20
2018-12-10T16:26:08.317Z,7.10
2018-12-10T16:28:37.503Z,7.10
2018-12-10T16:31:07.508Z,7.10
2018-12-10T16:33:41.179Z,7.10
2018-12-10T16:36:11.338Z,7.00
2018-12-10T16:38:41.927Z,7.10
2018-12-10T16:41:12.628Z,7.10
2018-12-10T16:43:42.618Z,7.10
2018-12-10T16:46:13.624Z,7.10
2018-12-10T16:48:46.452Z,7.10
2018-12-10T16:51:17.349Z,7.10
2018-12-10T16:53:50.017Z,7.10
2018-12-10T16:56:19.696Z,7.00
2018-12-10T16:58:50.516Z,7.00
2018-12-10T17:01:19.740Z,7.00
2018-12-10T17:03:56.439Z,6.90
2018-12-10T17:06:25.912Z,6.90
2018-12-10T17:08:56.455Z,7.00
2018-12-10T17:11:25.506Z,6.90
2018-12-10T17:13:58.221Z,6.90
2018-12-10T17:16:28.129Z,6.90
2018-12-10T17:19:05.656Z,6.80
2018-12-10T17:21:35.877Z,6.80
2018-12-10T17:24:05.010Z,6.70
2018-12-10T17:26:35.223Z,6.70
2018-12-10T17:29:09.218Z,6.70
2018-12-10T17:31:38.679Z,6.70
2018-12-10T17:34:11.289Z,6.60
2018-12-10T17:36:40.571Z,6.60
2018-12-10T17:39:17.492Z,6.60
2018-12-10T17:41:47.574Z,6.60
2018-12-10T17:44:16.602Z,6.50
2018-12-10T17:46:45.620Z,6.50
2018-12-10T17:49:22.298Z,6.50
2018-12-10T17:51:51.439Z,6.50
2018-12-10T17:54:21.967Z,6.50
2018-12-10T17:56:51.201Z,6.50
2018-12-10T17:59:23.880Z,6.50
2018-12-10T18:01:53.348Z,6.50
2018-12-10T18:04:26.140Z,6.50
2018-12-10T18:06:55.931Z,6.50
2018-12-10T18:09:29.113Z,6.40
2018-12-10T18:11:59.004Z,6.30
2018-12-10T18:14:32.111Z,6.30
2018-12-10T18:17:02.623Z,6.30
2018-12-10T18:19:50.979Z,6.40
2018-12-10T18:22:22.919Z,6.40
2018-12-10T18:24:52.337Z,6.40
2018-12-10T18:27:21.607Z,6.40
2018-12-10T18:29:51.119Z,6.30
2018-12-10T18:32:20.626Z,6.40
2018-12-10T18:34:50.846Z,6.30
2018-12-10T18:37:20.599Z,6.30
2018-12-10T18:39:50.438Z,6.30
2018-12-10T18:42:19.595Z,6.30
2018-12-10T18:44:48.955Z,6.30
2018-12-10T18:47:19.037Z,6.30
2018-12-10T18:49:51.953Z,6.30
2018-12-10T18:52:22.343Z,6.30
2018-12-10T18:54:55.132Z,6.30
2018-12-10T18:57:25.650Z,6.20
2018-12-10T19:00:04.570Z,6.20
2018-12-10T19:02:34.856Z,6.20
2018-12-10T19:05:07.115Z,6.10
2018-12-10T19:07:36.719Z,6.10
2018-12-10T19:10:08.738Z,6.00
2018-12-10T19:12:38.247Z,6.00
2018-12-10T19:15:09.662Z,6.00
2018-12-10T19:17:39.149Z,6.00
2018-12-10T19:20:13.615Z,6.00
2018-12-10T19:22:40.860Z,6.00
2018-12-10T19:25:13.045Z,6.00
2018-12-10T19:27:42.206Z,6.00
2018-12-10T19:30:15.301Z,6.00
2018-12-10T19:32:45.549Z,6.10
2018-12-10T19:35:16.392Z,6.10
2018-12-10T19:37:45.750Z,6.10
2018-12-10T19:40:20.559Z,6.10
2018-12-10T19:42:49.708Z,6.00
2018-12-10T19:45:23.426Z,6.10
2018-12-10T19:47:52.791Z,6.10
2018-12-10T19:57:04.237Z,6.00
2018-12-10T19:59:33.697Z,6.00
2018-12-10T20:02:03.039Z,6.00
2018-12-10T20:04:32.277Z,6.00
2018-12-10T20:07:06.876Z,6.10
2018-12-10T20:09:36.481Z,6.00
2018-12-10T20:12:06.679Z,6.00
2018-12-10T20:14:36.167Z,6.00
2018-12-10T20:17:05.921Z,6.00
2018-12-10T20:19:38.930Z,6.10
2018-12-10T20:22:09.596Z,6.00
2018-12-10T20:24:42.477Z,6.00
2018-12-10T20:27:12.104Z,5.90
2018-12-10T20:29:44.725Z,5.90
2018-12-10T20:32:15.486Z,5.90
2018-12-10T20:34:48.099Z,5.90
2018-12-10T20:37:17.328Z,5.90
2018-12-10T20:39:50.632Z,5.90
2018-12-10T20:42:20.034Z,5.90
2018-12-10T20:44:57.507Z,5.90
2018-12-10T20:47:27.096Z,5.90
2018-12-10T20:49:57.172Z,5.90
2018-12-10T20:52:27.699Z,5.90
2018-12-10T20:54:59.819Z,5.80
2018-12-10T20:57:29.156Z,5.80
2018-12-10T21:00:02.295Z,5.80
2018-12-10T21:02:33.139Z,5.80
2018-12-10T21:05:06.089Z,5.90
2018-12-10T21:07:35.678Z,5.90
2018-12-10T21:10:09.279Z,5.90
2018-12-10T21:12:39.815Z,5.90
2018-12-10T21:15:12.488Z,5.90
2018-12-10T21:17:42.368Z,5.90
2018-12-10T21:20:15.633Z,5.90
2018-12-10T21:22:45.120Z,5.90
2018-12-10T21:26:47.232Z,5.90
2018-12-10T21:29:20.657Z,5.90
2018-12-10T21:31:50.416Z,5.90
2018-12-10T21:34:23.366Z,5.90
2018-12-10T21:36:52.943Z,5.90
2018-12-10T21:39:24.844Z,5.80
2018-12-10T21:41:54.749Z,5.90
2018-12-10T21:44:27.836Z,5.90
2018-12-10T21:46:59.071Z,5.90
2018-12-10T21:49:29.635Z,6.00
2018-12-10T21:51:58.953Z,6.00
2018-12-10T21:54:36.391Z,6.00
2018-12-10T21:57:06.031Z,6.00
2018-12-10T21:59:36.403Z,6.10
2018-12-10T22:02:06.335Z,6.10
2018-12-10T22:04:39.168Z,6.10
2018-12-10T22:07:08.630Z,6.10
2018-12-10T22:09:41.960Z,6.00
2018-12-10T22:12:13.034Z,6.00
2018-12-10T22:14:45.583Z,6.00
2018-12-10T22:17:15.689Z,6.10
2018-12-10T22:19:48.999Z,6.00
2018-12-10T22:22:19.012Z,6.00
2018-12-10T22:24:52.897Z,6.00
2018-12-10T22:27:22.578Z,6.00
2018-12-10T22:29:52.945Z,6.10
2018-12-10T22:32:22.537Z,6.00
2018-12-10T22:34:58.955Z,6.00
2018-12-10T22:37:28.118Z,5.90
2018-12-10T22:39:59.116Z,6.00
2018-12-10T22:42:28.590Z,6.00
2018-12-10T22:45:03.534Z,6.00
2018-12-10T22:47:34.132Z,6.00
2018-12-10T22:50:07.381Z,6.00
2018-12-10T22:52:38.756Z,5.90
2018-12-10T22:55:08.640Z,5.80
2018-12-10T22:57:37.936Z,5.80
2018-12-10T23:00:13.194Z,5.80
2018-12-10T23:02:43.133Z,5.90
2018-12-10T23:05:16.401Z,5.90
2018-12-10T23:07:47.089Z,6.00
2018-12-10T23:10:18.112Z,6.00
2018-12-10T23:12:47.760Z,6.00
2018-12-10T23:15:20.602Z,6.00
2018-12-10T23:17:50.436Z,5.90
2018-12-10T23:20:27.552Z,6.00
2018-12-10T23:22:56.876Z,6.00
2018-12-10T23:25:26.222Z,5.90
2018-12-10T23:27:55.557Z,5.90
2018-12-10T23:30:28.400Z,5.80
2018-12-10T23:32:57.950Z,5.90
2018-12-10T23:35:30.755Z,6.00
2018-12-10T23:38:00.163Z,6.00
2018-12-10T23:40:33.067Z,5.90
2018-12-10T23:43:07.756Z,6.00
2018-12-10T23:45:36.902Z,6.10
2018-12-10T23:48:05.992Z,6.10
2018-12-10T23:50:40.019Z,6.10
2018-12-10T23:53:09.113Z,6.00
2018-12-10T23:55:41.200Z,6.00
2018-12-10T23:58:10.250Z,6.10
